Time;durP1;ratioP1;P1;durP2;ratioP2;P2;SDS_P1;SDS_P2;PMS_P1;PMS_P2;Temp;Humidity;BMP_temperature;BMP_pressure;BME280_temperature;BME280_humidity;BME280_pressure;Samples;Min_cycle;Max_cycle;Signal;HPM_P1;HPM_P2
2022/04/15 00:01:03;;;;;;;20.90;9.63;;;7.80;77.60;;;;;;4072008;28;20031;-82
2022/04/15 00:03:05;;;;;;;21.45;9.85;;;7.70;77.70;;;;;;4090129;28;20063;-82
2022/04/15 00:07:25;;;;;;;15.02;8.85;;;7.70;77.90;;;;;;4092701;28;20503;-81
2022/04/15 00:09:26;;;;;;;20.08;9.68;;;7.70;77.90;;;;;;4088672;28;20023;-84
2022/04/15 00:11:29;;;;;;;21.30;9.70;;;7.70;78.00;;;;;;4102388;28;20054;-82
2022/04/15 00:13:32;;;;;;;23.95;9.07;;;7.70;78.00;;;;;;4089217;28;20411;-82
2022/04/15 00:15:33;;;;;;;18.33;9.57;;;7.70;78.00;;;;;;4090630;28;20782;-83
2022/04/15 00:17:34;;;;;;;21.40;10.48;;;7.70;78.00;;;;;;4090772;28;20031;-81
2022/04/15 00:19:34;;;;;;;18.77;9.15;;;7.60;78.30;;;;;;4091826;28;20050;-82
2022/04/15 00:21:35;;;;;;;19.67;9.07;;;7.60;78.20;;;;;;4088115;28;20070;-81
2022/04/15 00:23:36;;;;;;;16.90;9.55;;;7.60;78.20;;;;;;4106067;28;20701;-83
2022/04/15 00:25:36;;;;;;;17.25;9.25;;;7.70;78.30;;;;;;4089073;28;20122;-81
2022/04/15 00:27:38;;;;;;;17.20;9.38;;;7.60;78.40;;;;;;4094130;28;20045;-83
2022/04/15 00:29:39;;;;;;;19.83;9.80;;;7.70;78.40;;;;;;4089830;28;20031;-82
2022/04/15 00:31:39;;;;;;;17.45;9.30;;;7.60;78.30;;;;;;4087833;28;21841;-81
2022/04/15 00:33:40;;;;;;;17.75;9.73;;;7.60;78.30;;;;;;4089434;28;20027;-83
2022/04/15 00:35:41;;;;;;;17.10;9.40;;;7.50;78.30;;;;;;4086189;28;20122;-83
2022/04/15 00:37:41;;;;;;;21.65;10.07;;;7.50;78.50;;;;;;4091416;28;20078;-84
2022/04/15 00:39:45;;;;;;;19.35;10.02;;;7.50;78.40;;;;;;4076095;28;20463;-81
2022/04/15 00:41:46;;;;;;;21.48;10.27;;;7.50;78.50;;;;;;4087775;28;20110;-82
2022/04/15 00:43:47;;;;;;;15.82;9.13;;;7.50;78.50;;;;;;4100118;28;20047;-82
2022/04/15 00:45:47;;;;;;;21.27;9.93;;;7.50;78.50;;;;;;4083225;28;20131;-82
2022/04/15 00:47:56;;;;;;;19.08;9.38;;;7.50;78.40;;;;;;4090673;28;20028;-83
2022/04/15 00:49:57;;;;;;;18.10;8.88;;;7.50;79.20;;;;;;4092021;28;20085;-82
2022/04/15 00:51:58;;;;;;;18.73;9.40;;;7.40;78.40;;;;;;4086042;28;20403;-81
2022/04/15 00:54:02;;;;;;;18.83;9.75;;;7.40;78.40;;;;;;4088964;28;20029;-82
2022/04/15 00:56:03;;;;;;;16.63;9.65;;;7.40;78.50;;;;;;4088028;28;20059;-81
2022/04/15 00:58:07;;;;;;;16.20;9.48;;;7.40;78.50;;;;;;4090038;28;20058;-82
2022/04/15 01:00:10;;;;;;;15.98;9.38;;;7.40;78.50;;;;;;4087991;28;20472;-82
2022/04/15 01:02:15;;;;;;;19.58;9.88;;;7.50;78.60;;;;;;4086117;28;20039;-81
2022/04/15 01:04:17;;;;;;;19.65;9.07;;;7.40;78.50;;;;;;4089527;28;20100;-81
2022/04/15 01:06:19;;;;;;;18.08;9.43;;;7.50;78.60;;;;;;4090103;28;20042;-82
2022/04/15 01:08:22;;;;;;;18.40;9.18;;;7.50;78.60;;;;;;4088408;28;20095;-82
2022/04/15 01:10:25;;;;;;;17.38;9.07;;;7.50;78.70;;;;;;4090145;28;20192;-81
2022/04/15 01:12:29;;;;;;;18.75;9.07;;;7.40;78.60;;;;;;4087385;28;20023;-82
2022/04/15 01:14:31;;;;;;;19.50;10.15;;;7.50;78.70;;;;;;4110100;28;20160;-82
2022/04/15 01:16:33;;;;;;;16.42;8.80;;;7.50;78.70;;;;;;4090629;28;20043;-81
2022/04/15 01:18:34;;;;;;;16.30;9.70;;;7.50;78.70;;;;;;4093276;28;20059;-82
2022/04/15 01:20:35;;;;;;;18.20;9.32;;;7.50;78.70;;;;;;4093103;28;20399;-82
2022/04/15 01:22:46;;;;;;;16.25;9.35;;;7.40;78.80;;;;;;4107857;28;20095;-82
2022/04/15 01:24:47;;;;;;;21.85;9.45;;;7.50;79.00;;;;;;4108521;28;21182;-83
2022/04/15 01:26:48;;;;;;;19.17;9.77;;;7.40;78.90;;;;;;4083673;28;20049;-83
2022/04/15 01:28:49;;;;;;;23.92;11.45;;;7.50;79.00;;;;;;4090971;28;20027;-82
2022/04/15 01:30:50;;;;;;;21.90;10.70;;;7.50;79.00;;;;;;4089284;28;20028;-81
2022/04/15 01:32:50;;;;;;;21.17;10.95;;;7.50;79.10;;;;;;4086887;28;20405;-82
2022/04/15 01:34:52;;;;;;;20.58;10.68;;;7.60;79.20;;;;;;4089764;28;20038;-85
2022/04/15 01:36:52;;;;;;;28.95;11.10;;;7.50;79.10;;;;;;4087393;28;20498;-82
2022/04/15 01:38:56;;;;;;;24.67;11.38;;;7.50;79.10;;;;;;4091268;28;20031;-83
2022/04/15 01:40:57;;;;;;;23.75;11.30;;;7.50;79.10;;;;;;4072146;29;20035;-83
2022/04/15 01:42:57;;;;;;;30.98;14.13;;;7.50;79.10;;;;;;4085938;28;20047;-82
2022/04/15 01:44:58;;;;;;;29.90;13.15;;;7.50;79.20;;;;;;4088483;28;20455;-83
2022/04/15 01:46:59;;;;;;;30.92;14.00;;;7.50;79.20;;;;;;4087341;28;20035;-83
2022/04/15 01:49:00;;;;;;;31.60;14.73;;;7.50;79.20;;;;;;4085841;28;20050;-83
2022/04/15 01:51:00;;;;;;;33.25;14.70;;;7.60;79.20;;;;;;4088751;28;20033;-83
2022/04/15 01:53:01;;;;;;;30.63;14.52;;;7.50;79.10;;;;;;4085806;28;20460;-82
2022/04/15 01:55:03;;;;;;;30.63;13.50;;;7.50;79.00;;;;;;4085545;28;20043;-82
2022/04/15 01:57:04;;;;;;;31.92;13.75;;;7.50;78.90;;;;;;4088190;28;20039;-82
2022/04/15 01:59:09;;;;;;;32.85;13.98;;;7.50;78.90;;;;;;4090083;28;20470;-81
2022/04/15 02:01:09;;;;;;;33.00;14.57;;;7.40;78.70;;;;;;4089093;28;20039;-82
2022/04/15 02:03:10;;;;;;;30.58;13.68;;;7.40;78.60;;;;;;4095199;28;20034;-83
2022/04/15 02:05:11;;;;;;;34.55;15.27;;;7.40;78.60;;;;;;4084341;28;20122;-82
2022/04/15 02:07:11;;;;;;;35.00;14.95;;;7.40;78.50;;;;;;4084865;28;20122;-82
2022/04/15 02:09:12;;;;;;;33.75;14.02;;;7.40;78.50;;;;;;4090469;28;20661;-82
2022/04/15 02:11:13;;;;;;;28.88;13.23;;;7.30;78.40;;;;;;4087775;28;20071;-83
2022/04/15 02:13:13;;;;;;;32.97;14.75;;;7.30;78.40;;;;;;4086873;28;20050;-82
2022/04/15 02:15:14;;;;;;;31.80;13.77;;;7.30;78.40;;;;;;4087660;28;20031;-83
2022/04/15 02:17:14;;;;;;;30.55;14.00;;;7.30;78.40;;;;;;4079291;28;20034;-81
2022/04/15 02:19:15;;;;;;;28.33;14.00;;;7.20;78.20;;;;;;4103202;28;20123;-84
2022/04/15 02:21:16;;;;;;;29.27;13.65;;;7.30;78.20;;;;;;4086766;28;20046;-83
2022/04/15 02:23:17;;;;;;;34.28;14.52;;;7.20;78.10;;;;;;4086672;28;20035;-82
2022/04/15 02:25:17;;;;;;;34.40;14.07;;;7.20;78.00;;;;;;4083596;28;20071;-84
2022/04/15 02:27:18;;;;;;;30.98;14.30;;;7.20;78.00;;;;;;4044042;28;1277335;-84
2022/04/15 02:29:19;;;;;;;26.33;13.68;;;7.20;78.00;;;;;;4088759;28;20055;-82
2022/04/15 02:31:19;;;;;;;29.05;14.85;;;7.20;78.00;;;;;;4101778;28;20144;-83
2022/04/15 02:33:20;;;;;;;28.50;14.52;;;7.10;77.90;;;;;;4084400;28;20055;-83
2022/04/15 02:35:21;;;;;;;35.90;16.42;;;7.10;77.90;;;;;;4088786;28;20078;-82
2022/04/15 02:37:21;;;;;;;35.22;15.95;;;7.00;77.80;;;;;;4074947;29;20027;-80
2022/04/15 02:39:22;;;;;;;35.25;16.17;;;7.10;77.90;;;;;;4087890;28;20035;-82
2022/04/15 02:41:23;;;;;;;30.70;16.30;;;7.00;77.90;;;;;;4083308;28;20040;-83
2022/04/15 02:43:31;;;;;;;33.50;15.30;;;7.00;77.90;;;;;;4102553;28;20034;-83
2022/04/15 02:45:32;;;;;;;29.42;14.07;;;7.00;77.90;;;;;;4089042;28;20035;-82
2022/04/15 02:47:33;;;;;;;32.05;15.30;;;7.00;77.90;;;;;;4087380;28;20039;-83
2022/04/15 02:49:34;;;;;;;32.47;15.25;;;7.00;78.00;;;;;;4089697;28;20028;-81
2022/04/15 02:51:35;;;;;;;31.02;15.10;;;7.00;77.90;;;;;;4088308;28;20062;-81
2022/04/15 02:53:35;;;;;;;31.50;14.98;;;7.00;77.90;;;;;;4088117;28;20113;-83
2022/04/15 02:55:36;;;;;;;29.35;15.75;;;7.00;77.90;;;;;;4083587;28;20051;-82
2022/04/15 02:57:37;;;;;;;32.15;15.52;;;7.00;77.90;;;;;;4090424;28;20023;-80
2022/04/15 02:59:37;;;;;;;31.95;14.43;;;7.10;78.00;;;;;;4088733;28;20034;-81
2022/04/15 03:01:38;;;;;;;28.08;14.45;;;7.00;77.90;;;;;;4089856;28;20047;-82
2022/04/15 03:03:39;;;;;;;27.88;13.85;;;7.00;77.90;;;;;;4086864;28;20051;-80
2022/04/15 03:05:40;;;;;;;29.88;14.75;;;7.00;77.80;;;;;;4086947;28;20031;-82
2022/04/15 03:07:41;;;;;;;24.95;13.63;;;7.00;77.80;;;;;;4089543;28;20027;-82
2022/04/15 03:09:41;;;;;;;32.13;14.60;;;7.10;77.90;;;;;;4103008;28;20081;-83
2022/04/15 03:11:42;;;;;;;29.85;14.50;;;7.00;77.80;;;;;;4085632;28;20050;-82
2022/04/15 03:13:43;;;;;;;27.38;13.65;;;7.10;77.70;;;;;;4082313;28;20038;-81
2022/04/15 03:15:43;;;;;;;27.95;14.75;;;7.10;77.60;;;;;;4086978;28;20039;-80
2022/04/15 03:17:44;;;;;;;27.10;14.40;;;7.00;77.60;;;;;;4102363;28;20510;-82
2022/04/15 03:19:45;;;;;;;32.25;15.10;;;7.10;77.70;;;;;;4088238;28;20031;-83
2022/04/15 03:21:45;;;;;;;30.98;15.10;;;7.00;77.60;;;;;;4086325;28;20031;-82
2022/04/15 03:23:46;;;;;;;29.17;14.20;;;7.00;77.60;;;;;;4088474;28;20042;-82
2022/04/15 03:25:47;;;;;;;36.15;15.63;;;7.00;77.60;;;;;;4092489;28;20051;-82
2022/04/15 03:27:48;;;;;;;30.95;14.93;;;7.00;77.60;;;;;;4089835;28;20054;-83
2022/04/15 03:29:48;;;;;;;31.02;14.48;;;7.00;77.60;;;;;;4083588;28;20538;-81
2022/04/15 03:31:49;;;;;;;32.67;15.30;;;7.00;77.60;;;;;;4088094;28;20074;-82
2022/04/15 03:33:50;;;;;;;29.63;14.57;;;7.00;77.60;;;;;;4103594;28;20023;-82
2022/04/15 03:35:50;;;;;;;29.73;13.98;;;7.00;77.60;;;;;;4088986;28;20134;-80
2022/04/15 03:37:52;;;;;;;27.88;14.52;;;7.10;77.60;;;;;;4105068;28;20058;-81
2022/04/15 03:39:52;;;;;;;30.38;14.93;;;7.00;77.50;;;;;;4089856;28;20103;-82
2022/04/15 03:41:53;;;;;;;34.28;14.93;;;7.10;77.60;;;;;;4071516;29;20036;-82
2022/04/15 03:43:54;;;;;;;32.65;15.60;;;7.00;77.70;;;;;;4086863;28;20038;-84
2022/04/15 03:45:55;;;;;;;30.98;16.10;;;7.00;77.60;;;;;;4087103;28;20036;-82
2022/04/15 03:47:56;;;;;;;32.90;15.93;;;7.10;77.60;;;;;;4097897;28;20034;-83
2022/04/15 03:49:56;;;;;;;31.98;16.05;;;7.10;77.60;;;;;;4088513;28;20106;-83
2022/04/15 03:51:57;;;;;;;29.42;15.35;;;7.00;77.60;;;;;;4106707;28;20041;-82
2022/04/15 03:53:58;;;;;;;32.22;15.88;;;7.00;77.60;;;;;;4109046;28;20034;-82
2022/04/15 03:55:58;;;;;;;33.95;15.90;;;7.00;77.50;;;;;;4097178;28;20027;-81
2022/04/15 03:57:59;;;;;;;31.90;15.68;;;7.00;77.50;;;;;;4092977;28;20035;-84
2022/04/15 03:59:59;;;;;;;33.97;16.10;;;7.00;77.50;;;;;;4099011;28;20031;-82
2022/04/15 04:02:00;;;;;;;35.20;16.70;;;7.00;77.60;;;;;;4093074;28;20040;-81
2022/04/15 04:04:01;;;;;;;31.83;14.93;;;7.00;77.60;;;;;;4095272;28;20031;-81
2022/04/15 04:06:01;;;;;;;28.52;14.52;;;7.00;77.50;;;;;;4097910;28;20035;-81
2022/04/15 04:08:02;;;;;;;32.90;15.20;;;7.00;77.60;;;;;;4097042;28;20034;-82
2022/04/15 04:10:03;;;;;;;35.17;14.75;;;7.00;77.50;;;;;;4095639;28;20768;-81
2022/04/15 04:12:04;;;;;;;28.38;15.10;;;7.00;77.50;;;;;;4112597;28;20066;-80
2022/04/15 04:14:05;;;;;;;61.38;15.77;;;7.00;77.60;;;;;;4098038;28;20032;-81
2022/04/15 04:16:06;;;;;;;31.02;15.25;;;7.00;77.60;;;;;;4095450;28;20090;-81
2022/04/15 04:18:06;;;;;;;31.75;14.43;;;7.00;77.60;;;;;;4095219;28;20050;-82
2022/04/15 04:20:10;;;;;;;32.13;16.02;;;7.00;77.50;;;;;;4090839;28;20118;-81
2022/04/15 04:22:10;;;;;;;28.10;14.25;;;7.00;77.50;;;;;;4092071;28;20107;-82
2022/04/15 04:24:12;;;;;;;32.30;15.15;;;7.10;77.50;;;;;;4090067;28;20046;-81
2022/04/15 04:26:13;;;;;;;30.08;15.43;;;7.00;77.40;;;;;;4090042;28;20425;-82
2022/04/15 04:28:13;;;;;;;30.45;14.63;;;7.00;77.40;;;;;;4090710;28;20094;-81
2022/04/15 04:30:15;;;;;;;29.95;13.80;;;7.10;77.50;;;;;;4093495;28;20149;-83
2022/04/15 04:32:17;;;;;;;31.77;14.82;;;7.20;77.60;;;;;;4088130;28;20377;-81
2022/04/15 04:34:18;;;;;;;28.83;13.35;;;7.00;77.40;;;;;;4089427;28;20576;-83
2022/04/15 04:36:19;;;;;;;32.13;15.35;;;7.10;77.40;;;;;;4108742;28;20027;-83
2022/04/15 04:38:19;;;;;;;29.98;14.30;;;7.10;77.40;;;;;;4091828;28;20023;-82
2022/04/15 04:40:20;;;;;;;30.02;14.95;;;7.10;77.40;;;;;;4092705;28;20074;-80
2022/04/15 04:42:22;;;;;;;30.38;14.18;;;7.10;77.30;;;;;;4091832;28;20027;-83
2022/04/15 04:44:23;;;;;;;30.20;14.57;;;7.10;77.30;;;;;;4088227;28;20023;-81
2022/04/15 04:46:24;;;;;;;33.95;13.85;;;7.10;77.20;;;;;;4090338;28;20035;-83
2022/04/15 04:48:24;;;;;;;34.35;14.48;;;7.10;77.20;;;;;;4090916;28;20054;-81
2022/04/15 04:50:25;;;;;;;31.42;14.55;;;7.20;77.30;;;;;;4094850;28;21096;-81
2022/04/15 04:52:26;;;;;;;28.55;13.15;;;7.10;77.20;;;;;;4106002;28;20035;-83
2022/04/15 04:54:27;;;;;;;37.90;15.30;;;7.10;77.20;;;;;;4088504;28;20059;-82
2022/04/15 04:56:28;;;;;;;30.30;14.18;;;7.10;77.10;;;;;;4089158;28;20042;-84
2022/04/15 04:58:28;;;;;;;26.48;12.70;;;7.10;77.10;;;;;;4094114;28;20114;-82
2022/04/15 05:00:29;;;;;;;31.38;15.00;;;7.10;77.10;;;;;;4105168;28;20134;-82
2022/04/15 05:02:30;;;;;;;31.80;13.98;;;7.10;77.80;;;;;;4091675;28;20119;-82
2022/04/15 05:04:30;;;;;;;32.00;13.63;;;7.10;77.10;;;;;;4093853;28;20043;-81
2022/04/15 05:06:31;;;;;;;33.33;12.82;;;7.10;77.10;;;;;;4089243;28;20043;-85
2022/04/15 05:08:32;;;;;;;25.30;12.32;;;7.10;77.00;;;;;;4094810;28;20027;-81
2022/04/15 05:10:32;;;;;;;35.05;13.32;;;7.10;77.00;;;;;;4089443;28;20050;-81
2022/04/15 05:12:33;;;;;;;28.48;12.32;;;7.10;77.10;;;;;;4089801;28;20093;-82
2022/04/15 05:14:34;;;;;;;29.42;12.73;;;7.20;77.10;;;;;;4092429;28;20413;-81
2022/04/15 05:16:34;;;;;;;26.50;12.63;;;7.10;77.00;;;;;;4090488;28;20039;-82
2022/04/15 05:18:35;;;;;;;31.40;12.57;;;7.10;77.00;;;;;;4087595;28;20031;-82
2022/04/15 05:20:37;;;;;;;27.17;11.43;;;7.20;77.10;;;;;;4091629;28;20118;-82
2022/04/15 05:22:37;;;;;;;25.50;12.23;;;7.20;77.10;;;;;;4089262;28;20031;-82
2022/04/15 05:24:39;;;;;;;24.90;12.07;;;7.10;77.10;;;;;;4089579;28;20024;-82
2022/04/15 05:26:39;;;;;;;28.15;12.57;;;7.10;77.00;;;;;;4088082;28;20039;-81
2022/04/15 05:28:41;;;;;;;28.67;12.32;;;7.20;77.10;;;;;;4090855;28;20465;-83
2022/04/15 05:30:42;;;;;;;24.42;11.23;;;7.20;77.10;;;;;;4089700;28;20027;-81
2022/04/15 05:32:43;;;;;;;24.75;11.77;;;7.20;77.10;;;;;;4092087;28;20058;-82
2022/04/15 05:34:44;;;;;;;27.38;10.60;;;7.20;77.10;;;;;;4088989;28;20027;-82
2022/04/15 05:36:45;;;;;;;20.60;10.75;;;7.20;77.00;;;;;;4087787;28;20035;-81
2022/04/15 05:38:46;;;;;;;25.15;11.75;;;7.20;77.00;;;;;;4088956;28;20127;-82
2022/04/15 05:40:46;;;;;;;25.95;11.25;;;7.20;77.00;;;;;;4087822;28;20031;-83
2022/04/15 05:42:47;;;;;;;21.58;10.68;;;7.20;76.90;;;;;;4088280;28;21037;-81
2022/04/15 05:44:48;;;;;;;24.58;11.02;;;7.20;76.90;;;;;;4083910;28;20035;-81
2022/04/15 05:46:48;;;;;;;24.15;11.63;;;7.20;76.90;;;;;;4082820;28;20122;-82
2022/04/15 05:48:49;;;;;;;23.90;11.23;;;7.20;76.90;;;;;;4101922;28;20038;-80
2022/04/15 05:50:50;;;;;;;24.60;11.07;;;7.20;76.90;;;;;;4086675;28;20495;-81
2022/04/15 05:52:51;;;;;;;22.63;10.60;;;7.30;76.80;;;;;;4086113;28;20019;-82
2022/04/15 05:54:52;;;;;;;21.23;10.60;;;7.30;76.80;;;;;;4083660;28;20128;-81
2022/04/15 05:56:53;;;;;;;24.45;11.98;;;7.30;76.80;;;;;;4087707;28;20043;-81
2022/04/15 05:58:53;;;;;;;24.73;11.38;;;7.30;76.80;;;;;;4084571;28;20038;-81
2022/04/15 06:00:54;;;;;;;25.85;11.35;;;7.30;76.70;;;;;;4090489;28;20055;-82
2022/04/15 06:02:55;;;;;;;23.33;10.98;;;7.30;76.70;;;;;;4087836;28;20150;-82
2022/04/15 06:04:56;;;;;;;21.73;11.05;;;7.30;76.70;;;;;;4069711;29;20127;-82
2022/04/15 06:06:56;;;;;;;21.83;10.10;;;7.30;76.70;;;;;;4088681;28;20039;-81
2022/04/15 06:08:57;;;;;;;25.85;11.13;;;7.30;76.60;;;;;;4087799;28;20038;-82
2022/04/15 06:10:59;;;;;;;26.98;12.25;;;7.40;76.70;;;;;;4087571;28;20031;-82
2022/04/15 06:13:04;;;;;;;24.35;11.50;;;7.30;76.60;;;;;;4085538;28;20035;-82
2022/04/15 06:15:05;;;;;;;26.45;11.18;;;7.30;76.60;;;;;;4106515;28;20125;-81
2022/04/15 06:17:06;;;;;;;26.98;12.32;;;7.30;76.50;;;;;;4101287;28;20491;-81
2022/04/15 06:19:06;;;;;;;23.60;11.13;;;7.30;76.50;;;;;;4087054;28;20072;-82
2022/04/15 06:21:07;;;;;;;25.88;12.18;;;7.30;76.40;;;;;;4085125;28;20027;-82
2022/04/15 06:23:08;;;;;;;23.80;11.20;;;7.30;76.20;;;;;;4099151;28;20391;-82
2022/04/15 06:25:09;;;;;;;24.23;11.80;;;7.30;76.20;;;;;;4102449;28;20042;-83
2022/04/15 06:27:10;;;;;;;20.63;11.32;;;7.40;76.40;;;;;;4090274;28;20045;-86
2022/04/15 06:29:10;;;;;;;22.27;11.15;;;7.30;76.20;;;;;;4070165;29;20765;-86
2022/04/15 06:31:11;;;;;;;25.90;12.23;;;7.40;76.30;;;;;;4086509;28;20041;-87
2022/04/15 06:33:15;;;;;;;27.73;11.90;;;7.40;76.20;;;;;;4086681;28;20455;-86
2022/04/15 06:35:15;;;;;;;28.92;11.98;;;7.30;76.10;;;;;;4082403;28;20035;-84
2022/04/15 06:37:16;;;;;;;26.02;12.07;;;7.30;76.10;;;;;;4083896;28;20047;-85
2022/04/15 06:39:17;;;;;;;26.52;12.02;;;7.40;76.20;;;;;;4085248;28;20095;-84
2022/04/15 06:41:17;;;;;;;25.55;11.60;;;7.40;76.20;;;;;;4098122;28;20082;-85
2022/04/15 06:43:18;;;;;;;22.58;11.52;;;7.40;76.20;;;;;;4082606;28;20067;-85
2022/04/15 06:45:19;;;;;;;22.98;11.35;;;7.50;76.30;;;;;;4082602;28;20122;-85
2022/04/15 06:47:20;;;;;;;25.17;11.82;;;7.40;76.10;;;;;;4082236;28;20036;-84
2022/04/15 06:49:21;;;;;;;24.10;12.25;;;7.40;76.10;;;;;;4083932;28;20032;-81
2022/04/15 06:51:21;;;;;;;25.05;11.25;;;7.50;76.00;;;;;;4081948;28;20158;-82
2022/04/15 06:53:25;;;;;;;25.80;12.05;;;7.40;76.00;;;;;;4081256;28;20385;-82
2022/04/15 06:55:26;;;;;;;25.65;12.65;;;7.40;76.10;;;;;;4084094;28;20035;-82
2022/04/15 06:57:26;;;;;;;26.38;11.38;;;7.50;76.10;;;;;;4084901;28;20463;-82
2022/04/15 06:59:27;;;;;;;25.77;12.55;;;7.40;76.00;;;;;;4082903;28;20806;-82
2022/04/15 07:01:29;;;;;;;32.00;13.02;;;7.40;76.00;;;;;;4085736;28;20478;-82
2022/04/15 07:03:30;;;;;;;25.73;12.63;;;7.50;76.10;;;;;;4082151;28;20195;-81
2022/04/15 07:05:30;;;;;;;24.63;12.77;;;7.40;76.00;;;;;;4101710;28;20120;-82
2022/04/15 07:07:31;;;;;;;32.80;14.00;;;7.50;76.00;;;;;;4083854;28;20043;-81
2022/04/15 07:09:32;;;;;;;31.63;14.55;;;7.50;76.00;;;;;;4085124;28;20436;-81
2022/04/15 07:11:32;;;;;;;35.65;15.77;;;7.40;75.90;;;;;;4083049;28;20039;-82
2022/04/15 07:13:33;;;;;;;33.60;13.77;;;7.60;76.00;;;;;;4080806;28;20559;-81
2022/04/15 07:15:34;;;;;;;35.17;16.27;;;7.50;75.90;;;;;;4082787;28;20040;-80
2022/04/15 07:17:35;;;;;;;32.55;14.43;;;7.50;75.90;;;;;;4083883;28;20035;-81
2022/04/15 07:19:36;;;;;;;32.55;14.35;;;7.50;75.90;;;;;;4083440;28;20035;-81
2022/04/15 07:21:43;;;;;;;32.83;15.20;;;7.50;75.80;;;;;;4084788;28;20038;-81
2022/04/15 07:23:45;;;;;;;30.50;14.77;;;7.50;75.90;;;;;;4101105;28;20027;-82
2022/04/15 07:25:45;;;;;;;32.15;15.75;;;7.50;75.90;;;;;;4088982;28;20484;-82
2022/04/15 07:27:46;;;;;;;35.33;15.80;;;7.50;76.00;;;;;;4091967;28;20063;-82
2022/04/15 07:29:50;;;;;;;39.08;15.48;;;7.50;75.90;;;;;;4085816;28;20042;-81
2022/04/15 07:31:50;;;;;;;37.55;16.38;;;7.50;76.00;;;;;;4088754;28;20030;-82
2022/04/15 07:33:51;;;;;;;36.00;16.63;;;7.50;76.10;;;;;;4097277;28;21781;-84
2022/04/15 07:35:55;;;;;;;37.10;15.02;;;7.40;76.10;;;;;;4093418;28;20102;-84
2022/04/15 07:37:56;;;;;;;35.28;13.88;;;7.40;76.10;;;;;;4089389;28;22615;-80
2022/04/15 07:39:57;;;;;;;33.45;15.02;;;7.40;76.10;;;;;;4103147;28;20054;-81
2022/04/15 07:41:57;;;;;;;36.72;14.93;;;7.40;76.20;;;;;;4105847;28;20034;-84
2022/04/15 07:43:58;;;;;;;30.45;13.40;;;7.40;76.30;;;;;;4091779;28;20098;-82
2022/04/15 07:45:59;;;;;;;34.83;14.25;;;7.40;76.20;;;;;;4101227;28;20053;-83
2022/04/15 07:48:00;;;;;;;31.45;14.10;;;7.40;76.30;;;;;;4106320;28;20049;-83
2022/04/15 07:50:01;;;;;;;27.42;12.35;;;7.30;76.20;;;;;;4091248;28;20114;-82
2022/04/15 07:52:04;;;;;;;36.97;14.88;;;7.40;76.30;;;;;;4088080;28;20027;-82
2022/04/15 07:54:05;;;;;;;;;;;7.40;76.30;;;;;;4089662;28;20066;-83
2022/04/15 07:56:06;;;;;;;29.90;12.15;;;7.40;76.40;;;;;;4088727;28;19919;-83
2022/04/15 07:58:07;;;;;;;30.77;13.57;;;7.40;76.20;;;;;;4090529;28;20024;-81
2022/04/15 08:00:08;;;;;;;31.48;12.93;;;7.40;76.20;;;;;;4087295;28;20043;-81
2022/04/15 08:02:09;;;;;;;28.20;12.38;;;7.40;77.00;;;;;;4089557;28;20054;-81
2022/04/15 08:04:10;;;;;;;32.80;12.98;;;7.40;76.30;;;;;;4092064;28;20384;-82
2022/04/15 08:06:11;;;;;;;30.83;12.73;;;7.50;76.30;;;;;;4091842;28;20038;-83
2022/04/15 08:08:11;;;;;;;26.98;12.02;;;7.40;76.30;;;;;;4089953;28;20492;-81
2022/04/15 08:10:12;;;;;;;26.92;11.98;;;7.40;76.40;;;;;;4087953;28;20435;-83
2022/04/15 08:12:13;;;;;;;26.08;11.82;;;7.50;76.40;;;;;;4086999;28;20543;-80
2022/04/15 08:14:13;;;;;;;27.77;10.90;;;7.40;76.30;;;;;;4089495;28;20031;-81
2022/04/15 08:16:15;;;;;;;32.90;11.48;;;7.40;76.20;;;;;;4094426;28;20086;-83
2022/04/15 08:18:16;;;;;;;20.42;10.95;;;7.50;76.20;;;;;;4101169;28;20117;-83
2022/04/15 08:20:17;;;;;;;29.77;11.07;;;7.50;76.30;;;;;;4091978;28;20032;-83
2022/04/15 08:22:18;;;;;;;25.15;10.93;;;7.50;76.20;;;;;;4090170;28;20042;-81
2022/04/15 08:24:19;;;;;;;23.55;10.57;;;7.50;76.00;;;;;;4090016;28;20027;-83
2022/04/15 08:26:20;;;;;;;21.70;10.20;;;7.50;75.90;;;;;;4091748;28;20498;-82
2022/04/15 08:28:20;;;;;;;23.30;10.10;;;7.50;75.90;;;;;;4105829;28;20051;-81
2022/04/15 08:30:21;;;;;;;16.38;8.95;;;7.50;75.80;;;;;;4088869;28;20094;-84
2022/04/15 08:32:22;;;;;;;20.80;9.85;;;7.50;75.70;;;;;;4086827;28;20055;-83
2022/04/15 08:34:23;;;;;;;21.80;8.80;;;7.50;75.70;;;;;;4087145;28;20297;-82
2022/04/15 08:36:23;;;;;;;18.38;9.02;;;7.50;75.60;;;;;;4089141;28;20494;-82
2022/04/15 08:38:24;;;;;;;17.92;8.50;;;7.50;75.60;;;;;;4087314;28;20495;-82
2022/04/15 08:40:33;;;;;;;19.60;8.38;;;7.50;75.50;;;;;;4091062;28;20107;-81
2022/04/15 08:42:34;;;;;;;16.20;8.18;;;7.60;75.60;;;;;;4082725;28;20061;-81
2022/04/15 08:44:35;;;;;;;16.00;7.47;;;7.70;75.50;;;;;;4085875;28;20058;-81
2022/04/15 08:46:37;;;;;;;19.67;9.13;;;7.70;75.60;;;;;;4101670;28;20033;-82
2022/04/15 08:48:39;;;;;;;16.02;7.80;;;7.70;75.60;;;;;;4106088;28;20031;-82
2022/04/15 08:50:40;;;;;;;12.52;7.05;;;7.70;75.30;;;;;;4110924;28;20054;-80
2022/04/15 08:52:41;;;;;;;16.35;7.20;;;7.70;75.20;;;;;;4089463;28;20488;-81
2022/04/15 08:54:43;;;;;;;16.95;7.30;;;7.70;75.10;;;;;;4104019;28;20463;-81
2022/04/15 08:56:44;;;;;;;13.98;6.85;;;7.70;74.80;;;;;;4089117;28;20031;-81
2022/04/15 08:58:45;;;;;;;14.05;6.88;;;7.80;74.50;;;;;;4093536;28;20102;-82
2022/04/15 09:00:46;;;;;;;16.92;7.90;;;7.90;74.20;;;;;;4091504;28;20110;-82
2022/04/15 09:02:49;;;;;;;13.27;6.55;;;7.70;73.70;;;;;;4088056;28;20095;-81
2022/04/15 09:04:49;;;;;;;19.38;7.40;;;7.70;73.70;;;;;;4090963;28;20102;-83
2022/04/15 09:07:01;;;;;;;13.43;6.43;;;7.80;73.70;;;;;;4085241;28;20695;-81
2022/04/15 09:09:08;;;;;;;16.65;6.90;;;7.80;73.80;;;;;;4078099;28;20098;-82
2022/04/15 09:11:08;;;;;;;12.80;6.20;;;7.90;73.90;;;;;;4082135;28;20573;-82
2022/04/15 09:13:20;;;;;;;19.13;7.20;;;7.90;74.10;;;;;;4083378;28;20027;-80
2022/04/15 09:15:21;;;;;;;15.50;7.35;;;7.90;74.00;;;;;;4089599;28;20095;-81
2022/04/15 09:17:23;;;;;;;18.02;7.05;;;7.90;73.80;;;;;;4083448;28;20067;-81
2022/04/15 09:19:24;;;;;;;17.13;7.65;;;7.90;73.80;;;;;;4081734;28;20035;-82
2022/04/15 09:21:25;;;;;;;17.83;8.18;;;7.90;73.70;;;;;;4080672;28;20077;-82
2022/04/15 09:23:26;;;;;;;16.13;8.40;;;8.00;73.70;;;;;;4100673;28;20046;-82
2022/04/15 09:25:28;;;;;;;24.63;9.02;;;7.90;74.10;;;;;;4080471;28;20141;-81
2022/04/15 09:27:29;;;;;;;16.15;7.53;;;8.00;73.60;;;;;;4088538;28;20041;-83
2022/04/15 09:29:38;;;;;;;19.65;8.18;;;8.00;73.70;;;;;;4080158;28;20031;-80
2022/04/15 09:31:39;;;;;;;17.60;8.95;;;8.00;73.50;;;;;;4090271;28;20719;-83
2022/04/15 09:34:09;;;;;;;18.05;7.60;;;8.00;73.10;;;;;;4090021;28;20034;-82
2022/04/15 09:36:24;;;;;;;23.40;8.75;;;8.00;73.10;;;;;;4040918;29;20614;-80
2022/04/15 09:38:44;;;;;;;20.52;8.40;;;8.00;73.10;;;;;;4034366;29;20037;-82
2022/04/15 09:40:44;;;;;;;17.67;7.57;;;8.00;73.40;;;;;;4038727;29;20044;-83
2022/04/15 09:42:46;;;;;;;15.73;7.35;;;8.10;73.60;;;;;;4036218;29;20132;-82
2022/04/15 09:44:47;;;;;;;18.75;8.30;;;8.20;73.50;;;;;;4023652;29;20033;-83
2022/04/15 09:46:50;;;;;;;20.65;8.13;;;8.20;73.20;;;;;;4037153;29;20052;-82
2022/04/15 09:48:58;;;;;;;;;;;8.20;72.80;;;;;;4038558;29;20092;-82
2022/04/15 09:50:59;;;;;;;16.42;8.43;;;8.20;72.50;;;;;;4036392;29;21195;-81
2022/04/15 09:53:12;;;;;;;15.25;7.85;;;8.20;72.60;;;;;;4044803;29;20060;-82
2022/04/15 09:55:21;;;;;;;18.70;7.85;;;8.20;72.60;;;;;;4041531;29;20041;-82
2022/04/15 09:57:26;;;;;;;17.33;7.57;;;8.20;72.50;;;;;;4017490;29;20052;-81
2022/04/15 09:59:29;;;;;;;15.85;6.95;;;8.20;72.40;;;;;;4035192;29;20607;-80
2022/04/15 10:01:32;;;;;;;14.73;7.18;;;8.30;72.70;;;;;;4037092;29;20051;-82
2022/04/15 10:03:35;;;;;;;18.30;8.63;;;8.30;72.60;;;;;;4019445;29;20064;-80
2022/04/15 10:05:38;;;;;;;16.38;7.57;;;8.40;72.30;;;;;;4022418;29;20036;-81
2022/04/15 10:07:42;;;;;;;21.80;8.98;;;8.30;72.20;;;;;;4031754;29;20048;-83
2022/04/15 10:09:43;;;;;;;22.83;9.65;;;8.40;72.50;;;;;;4002323;29;20030;-81
2022/04/15 10:11:45;;;;;;;18.42;8.43;;;8.20;71.70;;;;;;4008922;29;20123;-82
2022/04/15 10:13:47;;;;;;;21.95;9.15;;;8.30;71.70;;;;;;4080925;28;20055;-82
2022/04/15 10:15:49;;;;;;;19.27;9.13;;;8.30;71.90;;;;;;4082467;28;20034;-82
2022/04/15 10:17:50;;;;;;;18.60;9.40;;;8.30;72.10;;;;;;4080481;28;20031;-82
2022/04/15 10:19:52;;;;;;;19.02;9.13;;;8.30;72.20;;;;;;4077366;28;20038;-82
2022/04/15 10:21:53;;;;;;;23.27;10.32;;;8.30;72.30;;;;;;4080663;28;20078;-81
2022/04/15 10:23:54;;;;;;;25.00;9.75;;;8.20;72.20;;;;;;4079428;28;20027;-82
2022/04/15 10:26:00;;;;;;;24.17;9.40;;;8.30;72.20;;;;;;4093745;28;20201;-82
2022/04/15 10:28:10;;;;;;;23.85;9.63;;;8.30;72.20;;;;;;4094790;28;20485;-81
2022/04/15 10:30:15;;;;;;;25.73;10.55;;;8.30;72.30;;;;;;4082802;28;20098;-81